sensor_id;sensor_type;location;lat;lon;timestamp;P1;durP1;ratioP1;P2;durP2;ratioP2
39020;SDS011;25188;51.958;5.842;2023-05-31T00:02:22;7.75;;;2.95;;
39020;SDS011;25188;51.958;5.842;2023-05-31T00:04:48;8.00;;;3.28;;
39020;SDS011;25188;51.958;5.842;2023-05-31T00:07:14;7.30;;;2.70;;
39020;SDS011;25188;51.958;5.842;2023-05-31T00:09:40;6.30;;;3.08;;
39020;SDS011;25188;51.958;5.842;2023-05-31T00:12:05;5.03;;;2.83;;
39020;SDS011;25188;51.958;5.842;2023-05-31T00:14:31;5.93;;;3.00;;
39020;SDS011;25188;51.958;5.842;2023-05-31T00:16:57;8.40;;;3.45;;
39020;SDS011;25188;51.958;5.842;2023-05-31T00:19:22;5.80;;;2.40;;
39020;SDS011;25188;51.958;5.842;2023-05-31T00:21:48;4.00;;;2.15;;
39020;SDS011;25188;51.958;5.842;2023-05-31T00:24:13;5.78;;;3.13;;
39020;SDS011;25188;51.958;5.842;2023-05-31T00:26:40;5.93;;;3.22;;
39020;SDS011;25188;51.958;5.842;2023-05-31T00:29:06;5.60;;;2.67;;
39020;SDS011;25188;51.958;5.842;2023-05-31T00:31:31;8.50;;;3.33;;
39020;SDS011;25188;51.958;5.842;2023-05-31T00:33:57;6.50;;;2.85;;
39020;SDS011;25188;51.958;5.842;2023-05-31T00:36:23;7.25;;;3.42;;
39020;SDS011;25188;51.958;5.842;2023-05-31T00:38:48;7.15;;;3.38;;
39020;SDS011;25188;51.958;5.842;2023-05-31T00:41:15;7.07;;;3.92;;
39020;SDS011;25188;51.958;5.842;2023-05-31T00:43:40;5.88;;;3.20;;
39020;SDS011;25188;51.958;5.842;2023-05-31T00:46:07;10.73;;;3.53;;
39020;SDS011;25188;51.958;5.842;2023-05-31T00:48:39;8.43;;;4.03;;
39020;SDS011;25188;51.958;5.842;2023-05-31T00:51:07;8.32;;;4.03;;
39020;SDS011;25188;51.958;5.842;2023-05-31T00:53:34;8.07;;;3.47;;
39020;SDS011;25188;51.958;5.842;2023-05-31T00:56:00;9.00;;;3.38;;
39020;SDS011;25188;51.958;5.842;2023-05-31T00:58:26;7.57;;;3.38;;
39020;SDS011;25188;51.958;5.842;2023-05-31T01:00:52;8.02;;;3.15;;
39020;SDS011;25188;51.958;5.842;2023-05-31T01:03:19;7.13;;;3.58;;
39020;SDS011;25188;51.958;5.842;2023-05-31T01:05:45;7.00;;;3.53;;
39020;SDS011;25188;51.958;5.842;2023-05-31T01:08:11;7.35;;;3.90;;
39020;SDS011;25188;51.958;5.842;2023-05-31T01:10:39;10.68;;;3.80;;
39020;SDS011;25188;51.958;5.842;2023-05-31T01:15:46;7.70;;;3.63;;
39020;SDS011;25188;51.958;5.842;2023-05-31T01:18:22;10.65;;;4.43;;
39020;SDS011;25188;51.958;5.842;2023-05-31T01:20:52;8.45;;;3.90;;
39020;SDS011;25188;51.958;5.842;2023-05-31T01:23:29;12.70;;;4.10;;
39020;SDS011;25188;51.958;5.842;2023-05-31T01:28:44;9.20;;;3.80;;
39020;SDS011;25188;51.958;5.842;2023-05-31T01:31:16;8.20;;;3.60;;
39020;SDS011;25188;51.958;5.842;2023-05-31T01:33:44;8.65;;;3.83;;
39020;SDS011;25188;51.958;5.842;2023-05-31T01:36:11;10.10;;;4.90;;
39020;SDS011;25188;51.958;5.842;2023-05-31T01:38:36;8.60;;;4.38;;
39020;SDS011;25188;51.958;5.842;2023-05-31T01:41:02;10.05;;;4.82;;
39020;SDS011;25188;51.958;5.842;2023-05-31T01:43:31;10.57;;;5.57;;
39020;SDS011;25188;51.958;5.842;2023-05-31T01:45:58;7.57;;;3.80;;
39020;SDS011;25188;51.958;5.842;2023-05-31T01:48:25;13.38;;;4.25;;
39020;SDS011;25188;51.958;5.842;2023-05-31T01:50:52;11.10;;;5.32;;
39020;SDS011;25188;51.958;5.842;2023-05-31T01:53:19;9.63;;;4.28;;
39020;SDS011;25188;51.958;5.842;2023-05-31T01:55:44;10.20;;;4.63;;
39020;SDS011;25188;51.958;5.842;2023-05-31T01:58:11;9.38;;;4.82;;
39020;SDS011;25188;51.958;5.842;2023-05-31T02:00:38;10.30;;;4.93;;
39020;SDS011;25188;51.958;5.842;2023-05-31T02:03:06;10.18;;;5.40;;
39020;SDS011;25188;51.958;5.842;2023-05-31T02:05:32;10.35;;;4.78;;
39020;SDS011;25188;51.958;5.842;2023-05-31T02:07:57;10.05;;;5.53;;
39020;SDS011;25188;51.958;5.842;2023-05-31T02:10:23;10.32;;;5.22;;
39020;SDS011;25188;51.958;5.842;2023-05-31T02:12:49;11.75;;;6.03;;
39020;SDS011;25188;51.958;5.842;2023-05-31T02:15:15;13.55;;;6.93;;
39020;SDS011;25188;51.958;5.842;2023-05-31T02:17:44;12.65;;;6.30;;
39020;SDS011;25188;51.958;5.842;2023-05-31T02:20:14;14.15;;;6.60;;
39020;SDS011;25188;51.958;5.842;2023-05-31T02:22:40;15.25;;;7.65;;
39020;SDS011;25188;51.958;5.842;2023-05-31T02:25:11;12.07;;;6.43;;
39020;SDS011;25188;51.958;5.842;2023-05-31T02:27:38;15.20;;;6.20;;
39020;SDS011;25188;51.958;5.842;2023-05-31T02:30:04;14.32;;;7.20;;
39020;SDS011;25188;51.958;5.842;2023-05-31T02:32:31;12.43;;;6.68;;
39020;SDS011;25188;51.958;5.842;2023-05-31T02:35:03;13.80;;;7.43;;
39020;SDS011;25188;51.958;5.842;2023-05-31T02:37:29;15.68;;;7.03;;
39020;SDS011;25188;51.958;5.842;2023-05-31T02:39:55;11.32;;;5.38;;
39020;SDS011;25188;51.958;5.842;2023-05-31T02:42:21;11.80;;;7.03;;
39020;SDS011;25188;51.958;5.842;2023-05-31T02:44:47;10.60;;;6.35;;
39020;SDS011;25188;51.958;5.842;2023-05-31T02:47:12;13.50;;;7.07;;
39020;SDS011;25188;51.958;5.842;2023-05-31T02:49:38;12.02;;;7.32;;
39020;SDS011;25188;51.958;5.842;2023-05-31T02:52:04;12.95;;;7.72;;
39020;SDS011;25188;51.958;5.842;2023-05-31T02:54:30;12.80;;;6.70;;
39020;SDS011;25188;51.958;5.842;2023-05-31T02:56:56;12.60;;;7.43;;
39020;SDS011;25188;51.958;5.842;2023-05-31T02:59:21;14.35;;;7.32;;
39020;SDS011;25188;51.958;5.842;2023-05-31T03:01:48;13.93;;;7.60;;
39020;SDS011;25188;51.958;5.842;2023-05-31T03:04:14;13.90;;;6.88;;
39020;SDS011;25188;51.958;5.842;2023-05-31T03:06:39;14.10;;;7.57;;
39020;SDS011;25188;51.958;5.842;2023-05-31T03:09:05;16.65;;;7.60;;
39020;SDS011;25188;51.958;5.842;2023-05-31T03:11:32;14.60;;;7.45;;
39020;SDS011;25188;51.958;5.842;2023-05-31T03:13:58;12.18;;;7.22;;
39020;SDS011;25188;51.958;5.842;2023-05-31T03:16:23;13.25;;;7.22;;
39020;SDS011;25188;51.958;5.842;2023-05-31T03:18:50;12.25;;;6.85;;
39020;SDS011;25188;51.958;5.842;2023-05-31T03:21:16;12.75;;;7.05;;
39020;SDS011;25188;51.958;5.842;2023-05-31T03:23:42;14.73;;;6.95;;
39020;SDS011;25188;51.958;5.842;2023-05-31T03:26:08;17.95;;;7.95;;
39020;SDS011;25188;51.958;5.842;2023-05-31T03:28:35;11.80;;;6.88;;
39020;SDS011;25188;51.958;5.842;2023-05-31T03:31:00;13.55;;;7.45;;
39020;SDS011;25188;51.958;5.842;2023-05-31T03:33:26;14.73;;;7.72;;
39020;SDS011;25188;51.958;5.842;2023-05-31T03:35:52;15.85;;;7.97;;
39020;SDS011;25188;51.958;5.842;2023-05-31T03:38:18;14.13;;;8.13;;
39020;SDS011;25188;51.958;5.842;2023-05-31T03:40:43;16.70;;;8.60;;
39020;SDS011;25188;51.958;5.842;2023-05-31T03:43:09;15.60;;;7.95;;
39020;SDS011;25188;51.958;5.842;2023-05-31T03:45:35;14.73;;;8.15;;
39020;SDS011;25188;51.958;5.842;2023-05-31T03:48:00;18.85;;;9.52;;
39020;SDS011;25188;51.958;5.842;2023-05-31T03:50:26;16.92;;;8.80;;
39020;SDS011;25188;51.958;5.842;2023-05-31T03:52:52;16.90;;;8.52;;
39020;SDS011;25188;51.958;5.842;2023-05-31T03:55:17;14.52;;;7.57;;
39020;SDS011;25188;51.958;5.842;2023-05-31T03:57:43;15.63;;;8.15;;
39020;SDS011;25188;51.958;5.842;2023-05-31T04:00:09;17.17;;;8.32;;
39020;SDS011;25188;51.958;5.842;2023-05-31T04:02:36;17.35;;;8.48;;
39020;SDS011;25188;51.958;5.842;2023-05-31T04:05:02;16.70;;;8.63;;
39020;SDS011;25188;51.958;5.842;2023-05-31T04:07:29;17.98;;;9.80;;
39020;SDS011;25188;51.958;5.842;2023-05-31T04:09:56;17.48;;;8.65;;
39020;SDS011;25188;51.958;5.842;2023-05-31T04:12:21;18.77;;;9.15;;
39020;SDS011;25188;51.958;5.842;2023-05-31T04:14:47;17.80;;;9.32;;
39020;SDS011;25188;51.958;5.842;2023-05-31T04:17:13;14.88;;;7.72;;
39020;SDS011;25188;51.958;5.842;2023-05-31T04:19:38;14.32;;;8.32;;
39020;SDS011;25188;51.958;5.842;2023-05-31T04:22:04;16.63;;;9.02;;
39020;SDS011;25188;51.958;5.842;2023-05-31T04:24:29;15.15;;;8.98;;
39020;SDS011;25188;51.958;5.842;2023-05-31T04:26:55;20.42;;;9.43;;
39020;SDS011;25188;51.958;5.842;2023-05-31T04:29:21;18.30;;;8.68;;
39020;SDS011;25188;51.958;5.842;2023-05-31T04:31:47;17.85;;;9.27;;
39020;SDS011;25188;51.958;5.842;2023-05-31T04:34:13;19.13;;;9.52;;
39020;SDS011;25188;51.958;5.842;2023-05-31T04:36:43;19.48;;;10.15;;
39020;SDS011;25188;51.958;5.842;2023-05-31T04:39:13;17.50;;;8.93;;
39020;SDS011;25188;51.958;5.842;2023-05-31T04:41:44;14.88;;;9.30;;
39020;SDS011;25188;51.958;5.842;2023-05-31T04:44:10;19.95;;;10.32;;
39020;SDS011;25188;51.958;5.842;2023-05-31T04:46:36;18.33;;;9.55;;
39020;SDS011;25188;51.958;5.842;2023-05-31T04:49:02;15.50;;;9.48;;
39020;SDS011;25188;51.958;5.842;2023-05-31T04:51:29;20.00;;;10.48;;
39020;SDS011;25188;51.958;5.842;2023-05-31T04:53:56;18.02;;;9.40;;
39020;SDS011;25188;51.958;5.842;2023-05-31T04:56:21;19.10;;;9.38;;
39020;SDS011;25188;51.958;5.842;2023-05-31T04:58:47;19.20;;;11.07;;
39020;SDS011;25188;51.958;5.842;2023-05-31T05:01:12;19.48;;;10.20;;
39020;SDS011;25188;51.958;5.842;2023-05-31T05:03:39;19.10;;;9.68;;
39020;SDS011;25188;51.958;5.842;2023-05-31T05:06:12;19.95;;;10.20;;
39020;SDS011;25188;51.958;5.842;2023-05-31T05:08:41;18.08;;;10.52;;
39020;SDS011;25188;51.958;5.842;2023-05-31T05:11:07;19.15;;;10.55;;
39020;SDS011;25188;51.958;5.842;2023-05-31T05:13:33;20.58;;;11.73;;
39020;SDS011;25188;51.958;5.842;2023-05-31T05:16:00;18.58;;;10.60;;
39020;SDS011;25188;51.958;5.842;2023-05-31T05:18:25;21.08;;;11.13;;
39020;SDS011;25188;51.958;5.842;2023-05-31T05:20:52;17.27;;;10.23;;
39020;SDS011;25188;51.958;5.842;2023-05-31T05:23:17;20.85;;;10.70;;
39020;SDS011;25188;51.958;5.842;2023-05-31T05:25:43;20.70;;;11.35;;
39020;SDS011;25188;51.958;5.842;2023-05-31T05:28:08;19.40;;;10.52;;
39020;SDS011;25188;51.958;5.842;2023-05-31T05:30:36;18.35;;;11.48;;
39020;SDS011;25188;51.958;5.842;2023-05-31T05:33:03;18.58;;;11.07;;
39020;SDS011;25188;51.958;5.842;2023-05-31T05:35:28;18.60;;;10.70;;
39020;SDS011;25188;51.958;5.842;2023-05-31T05:37:54;17.83;;;10.88;;
39020;SDS011;25188;51.958;5.842;2023-05-31T05:40:20;18.52;;;11.30;;
39020;SDS011;25188;51.958;5.842;2023-05-31T05:42:47;17.63;;;9.77;;
39020;SDS011;25188;51.958;5.842;2023-05-31T05:45:13;17.55;;;10.50;;
39020;SDS011;25188;51.958;5.842;2023-05-31T05:47:39;18.58;;;10.43;;
39020;SDS011;25188;51.958;5.842;2023-05-31T05:50:06;23.13;;;11.10;;
39020;SDS011;25188;51.958;5.842;2023-05-31T05:52:32;18.05;;;10.50;;
39020;SDS011;25188;51.958;5.842;2023-05-31T05:54:57;14.07;;;9.00;;
39020;SDS011;25188;51.958;5.842;2023-05-31T05:57:23;19.23;;;9.95;;
39020;SDS011;25188;51.958;5.842;2023-05-31T05:59:50;15.95;;;10.07;;
39020;SDS011;25188;51.958;5.842;2023-05-31T06:02:16;17.95;;;9.13;;
39020;SDS011;25188;51.958;5.842;2023-05-31T06:04:41;17.35;;;9.38;;
39020;SDS011;25188;51.958;5.842;2023-05-31T06:07:07;21.33;;;10.35;;
39020;SDS011;25188;51.958;5.842;2023-05-31T06:09:32;15.50;;;10.43;;
39020;SDS011;25188;51.958;5.842;2023-05-31T06:11:58;15.93;;;9.05;;
39020;SDS011;25188;51.958;5.842;2023-05-31T06:14:24;16.67;;;10.02;;
39020;SDS011;25188;51.958;5.842;2023-05-31T06:16:50;14.52;;;8.90;;
39020;SDS011;25188;51.958;5.842;2023-05-31T06:19:15;16.02;;;8.45;;
39020;SDS011;25188;51.958;5.842;2023-05-31T06:21:41;12.85;;;8.25;;
39020;SDS011;25188;51.958;5.842;2023-05-31T06:24:06;16.40;;;8.80;;
39020;SDS011;25188;51.958;5.842;2023-05-31T06:26:32;12.90;;;7.45;;
39020;SDS011;25188;51.958;5.842;2023-05-31T06:29:00;13.32;;;8.07;;
39020;SDS011;25188;51.958;5.842;2023-05-31T06:31:26;15.57;;;8.02;;
39020;SDS011;25188;51.958;5.842;2023-05-31T06:33:52;12.93;;;7.10;;
39020;SDS011;25188;51.958;5.842;2023-05-31T06:36:18;16.88;;;8.02;;
39020;SDS011;25188;51.958;5.842;2023-05-31T06:38:43;15.30;;;7.15;;
39020;SDS011;25188;51.958;5.842;2023-05-31T06:41:11;14.10;;;6.93;;
39020;SDS011;25188;51.958;5.842;2023-05-31T06:43:37;12.52;;;6.22;;
39020;SDS011;25188;51.958;5.842;2023-05-31T06:46:03;13.40;;;6.70;;
39020;SDS011;25188;51.958;5.842;2023-05-31T06:48:32;13.77;;;6.53;;
39020;SDS011;25188;51.958;5.842;2023-05-31T06:50:58;12.68;;;5.85;;
39020;SDS011;25188;51.958;5.842;2023-05-31T06:53:24;13.02;;;6.57;;
39020;SDS011;25188;51.958;5.842;2023-05-31T06:55:50;12.02;;;5.68;;
39020;SDS011;25188;51.958;5.842;2023-05-31T06:58:16;14.02;;;5.75;;
39020;SDS011;25188;51.958;5.842;2023-05-31T07:00:42;15.13;;;5.07;;
39020;SDS011;25188;51.958;5.842;2023-05-31T07:03:07;11.57;;;5.45;;
39020;SDS011;25188;51.958;5.842;2023-05-31T07:05:33;12.40;;;4.85;;
39020;SDS011;25188;51.958;5.842;2023-05-31T07:07:59;14.60;;;4.68;;
39020;SDS011;25188;51.958;5.842;2023-05-31T07:10:25;10.18;;;4.85;;
39020;SDS011;25188;51.958;5.842;2023-05-31T07:12:52;8.80;;;4.38;;
39020;SDS011;25188;51.958;5.842;2023-05-31T07:15:18;11.05;;;4.35;;
39020;SDS011;25188;51.958;5.842;2023-05-31T07:17:44;11.73;;;4.72;;
39020;SDS011;25188;51.958;5.842;2023-05-31T07:20:10;10.60;;;4.50;;
39020;SDS011;25188;51.958;5.842;2023-05-31T07:22:36;11.75;;;4.90;;
39020;SDS011;25188;51.958;5.842;2023-05-31T07:25:02;10.60;;;3.88;;
39020;SDS011;25188;51.958;5.842;2023-05-31T07:27:29;9.18;;;3.75;;
39020;SDS011;25188;51.958;5.842;2023-05-31T07:29:55;10.43;;;3.70;;
39020;SDS011;25188;51.958;5.842;2023-05-31T07:32:21;8.95;;;3.50;;
39020;SDS011;25188;51.958;5.842;2023-05-31T07:34:47;11.95;;;3.75;;
39020;SDS011;25188;51.958;5.842;2023-05-31T07:37:13;9.75;;;3.03;;
39020;SDS011;25188;51.958;5.842;2023-05-31T07:39:38;9.73;;;3.70;;
39020;SDS011;25188;51.958;5.842;2023-05-31T07:42:04;10.00;;;3.53;;
39020;SDS011;25188;51.958;5.842;2023-05-31T07:44:30;10.80;;;3.60;;
39020;SDS011;25188;51.958;5.842;2023-05-31T07:46:56;7.82;;;3.60;;
39020;SDS011;25188;51.958;5.842;2023-05-31T07:49:21;11.13;;;3.50;;
39020;SDS011;25188;51.958;5.842;2023-05-31T07:51:47;9.43;;;4.20;;
39020;SDS011;25188;51.958;5.842;2023-05-31T07:54:13;9.05;;;2.92;;
39020;SDS011;25188;51.958;5.842;2023-05-31T07:56:39;10.43;;;4.32;;
39020;SDS011;25188;51.958;5.842;2023-05-31T07:59:05;7.63;;;2.72;;
39020;SDS011;25188;51.958;5.842;2023-05-31T08:01:31;12.48;;;3.85;;
39020;SDS011;25188;51.958;5.842;2023-05-31T08:04:11;9.95;;;4.10;;
39020;SDS011;25188;51.958;5.842;2023-05-31T08:06:37;14.20;;;3.70;;
39020;SDS011;25188;51.958;5.842;2023-05-31T08:09:03;12.05;;;3.85;;
39020;SDS011;25188;51.958;5.842;2023-05-31T08:11:33;9.68;;;3.42;;
39020;SDS011;25188;51.958;5.842;2023-05-31T08:14:02;8.52;;;3.97;;
39020;SDS011;25188;51.958;5.842;2023-05-31T08:16:29;7.38;;;3.42;;
39020;SDS011;25188;51.958;5.842;2023-05-31T08:18:56;9.25;;;3.70;;
39020;SDS011;25188;51.958;5.842;2023-05-31T08:21:21;10.63;;;3.78;;
39020;SDS011;25188;51.958;5.842;2023-05-31T08:23:47;9.63;;;3.10;;
39020;SDS011;25188;51.958;5.842;2023-05-31T08:26:13;8.00;;;3.03;;
39020;SDS011;25188;51.958;5.842;2023-05-31T08:28:39;8.10;;;2.90;;
39020;SDS011;25188;51.958;5.842;2023-05-31T08:31:05;8.20;;;3.65;;
39020;SDS011;25188;51.958;5.842;2023-05-31T08:33:31;7.00;;;3.35;;
39020;SDS011;25188;51.958;5.842;2023-05-31T08:36:00;7.47;;;3.35;;
39020;SDS011;25188;51.958;5.842;2023-05-31T08:38:29;9.65;;;3.47;;
39020;SDS011;25188;51.958;5.842;2023-05-31T08:40:56;9.93;;;3.80;;
39020;SDS011;25188;51.958;5.842;2023-05-31T08:43:25;8.30;;;3.20;;
39020;SDS011;25188;51.958;5.842;2023-05-31T08:45:51;11.02;;;2.60;;
39020;SDS011;25188;51.958;5.842;2023-05-31T08:50:56;8.63;;;3.10;;
39020;SDS011;25188;51.958;5.842;2023-05-31T08:53:26;10.70;;;3.35;;
39020;SDS011;25188;51.958;5.842;2023-05-31T08:55:52;8.20;;;3.45;;
39020;SDS011;25188;51.958;5.842;2023-05-31T08:58:19;11.35;;;2.95;;
39020;SDS011;25188;51.958;5.842;2023-05-31T09:00:45;10.55;;;3.38;;
39020;SDS011;25188;51.958;5.842;2023-05-31T09:03:11;9.93;;;2.70;;
39020;SDS011;25188;51.958;5.842;2023-05-31T09:05:37;6.53;;;2.92;;
39020;SDS011;25188;51.958;5.842;2023-05-31T09:08:03;6.55;;;2.58;;
39020;SDS011;25188;51.958;5.842;2023-05-31T09:10:29;8.60;;;2.17;;
39020;SDS011;25188;51.958;5.842;2023-05-31T09:12:55;7.80;;;2.65;;
39020;SDS011;25188;51.958;5.842;2023-05-31T09:15:22;6.95;;;2.55;;
39020;SDS011;25188;51.958;5.842;2023-05-31T09:17:49;10.88;;;2.95;;
39020;SDS011;25188;51.958;5.842;2023-05-31T09:20:15;6.95;;;2.67;;
39020;SDS011;25188;51.958;5.842;2023-05-31T09:22:41;5.30;;;1.92;;
39020;SDS011;25188;51.958;5.842;2023-05-31T09:25:07;8.30;;;2.85;;
39020;SDS011;25188;51.958;5.842;2023-05-31T09:27:37;11.60;;;3.33;;
39020;SDS011;25188;51.958;5.842;2023-05-31T09:30:08;10.18;;;2.55;;
39020;SDS011;25188;51.958;5.842;2023-05-31T09:32:37;6.88;;;2.47;;
39020;SDS011;25188;51.958;5.842;2023-05-31T09:35:11;7.95;;;2.47;;
39020;SDS011;25188;51.958;5.842;2023-05-31T09:37:44;6.53;;;2.58;;
39020;SDS011;25188;51.958;5.842;2023-05-31T09:40:14;8.52;;;2.60;;
39020;SDS011;25188;51.958;5.842;2023-05-31T09:42:50;5.68;;;2.53;;
39020;SDS011;25188;51.958;5.842;2023-05-31T09:45:17;6.88;;;2.10;;
39020;SDS011;25188;51.958;5.842;2023-05-31T09:47:43;9.30;;;2.03;;
39020;SDS011;25188;51.958;5.842;2023-05-31T09:50:10;6.50;;;1.88;;
39020;SDS011;25188;51.958;5.842;2023-05-31T09:52:36;11.15;;;2.50;;
39020;SDS011;25188;51.958;5.842;2023-05-31T09:55:06;6.35;;;1.92;;
39020;SDS011;25188;51.958;5.842;2023-05-31T09:57:37;9.70;;;2.70;;
39020;SDS011;25188;51.958;5.842;2023-05-31T10:00:13;8.07;;;2.05;;
39020;SDS011;25188;51.958;5.842;2023-05-31T10:02:53;7.45;;;1.85;;
39020;SDS011;25188;51.958;5.842;2023-05-31T10:05:20;5.10;;;1.65;;
39020;SDS011;25188;51.958;5.842;2023-05-31T10:07:46;8.10;;;1.83;;
39020;SDS011;25188;51.958;5.842;2023-05-31T10:10:17;5.45;;;1.63;;
39020;SDS011;25188;51.958;5.842;2023-05-31T10:15:15;7.13;;;1.20;;
39020;SDS011;25188;51.958;5.842;2023-05-31T10:17:45;6.43;;;1.52;;
39020;SDS011;25188;51.958;5.842;2023-05-31T10:20:27;5.47;;;1.20;;
39020;SDS011;25188;51.958;5.842;2023-05-31T10:22:57;6.05;;;1.58;;
39020;SDS011;25188;51.958;5.842;2023-05-31T10:28:00;6.18;;;1.58;;
39020;SDS011;25188;51.958;5.842;2023-05-31T10:30:32;5.55;;;1.30;;
39020;SDS011;25188;51.958;5.842;2023-05-31T10:33:07;6.32;;;1.30;;
39020;SDS011;25188;51.958;5.842;2023-05-31T10:35:38;7.30;;;1.50;;
39020;SDS011;25188;51.958;5.842;2023-05-31T10:38:04;5.10;;;1.23;;
39020;SDS011;25188;51.958;5.842;2023-05-31T10:40:33;5.88;;;1.80;;
39020;SDS011;25188;51.958;5.842;2023-05-31T10:43:17;6.82;;;1.52;;
39020;SDS011;25188;51.958;5.842;2023-05-31T10:45:49;5.50;;;1.60;;
39020;SDS011;25188;51.958;5.842;2023-05-31T10:53:18;5.82;;;1.20;;
39020;SDS011;25188;51.958;5.842;2023-05-31T10:55:44;5.30;;;1.42;;
39020;SDS011;25188;51.958;5.842;2023-05-31T11:01:13;5.40;;;1.75;;
39020;SDS011;25188;51.958;5.842;2023-05-31T11:03:58;6.90;;;1.40;;
39020;SDS011;25188;51.958;5.842;2023-05-31T11:06:25;5.72;;;1.25;;
39020;SDS011;25188;51.958;5.842;2023-05-31T11:08:56;4.32;;;1.30;;
39020;SDS011;25188;51.958;5.842;2023-05-31T11:13:57;6.35;;;1.40;;
39020;SDS011;25188;51.958;5.842;2023-05-31T11:16:25;7.63;;;1.60;;
39020;SDS011;25188;51.958;5.842;2023-05-31T11:19:34;4.75;;;1.33;;
39020;SDS011;25188;51.958;5.842;2023-05-31T11:26:58;5.18;;;1.30;;
39020;SDS011;25188;51.958;5.842;2023-05-31T11:30:12;4.63;;;1.50;;
39020;SDS011;25188;51.958;5.842;2023-05-31T11:35:01;5.85;;;1.08;;
39020;SDS011;25188;51.958;5.842;2023-05-31T11:37:29;5.20;;;1.75;;
39020;SDS011;25188;51.958;5.842;2023-05-31T11:39:59;4.65;;;1.15;;
39020;SDS011;25188;51.958;5.842;2023-05-31T11:42:29;4.75;;;1.40;;
39020;SDS011;25188;51.958;5.842;2023-05-31T11:44:56;5.93;;;1.48;;
39020;SDS011;25188;51.958;5.842;2023-05-31T11:47:26;6.22;;;1.20;;
39020;SDS011;25188;51.958;5.842;2023-05-31T11:49:52;5.38;;;1.55;;
39020;SDS011;25188;51.958;5.842;2023-05-31T11:52:21;5.63;;;1.05;;
39020;SDS011;25188;51.958;5.842;2023-05-31T11:54:47;6.60;;;1.20;;
39020;SDS011;25188;51.958;5.842;2023-05-31T11:57:14;5.25;;;1.30;;
39020;SDS011;25188;51.958;5.842;2023-05-31T11:59:45;4.65;;;1.52;;
39020;SDS011;25188;51.958;5.842;2023-05-31T12:02:11;8.48;;;1.85;;
39020;SDS011;25188;51.958;5.842;2023-05-31T12:04:40;5.30;;;1.73;;
39020;SDS011;25188;51.958;5.842;2023-05-31T12:07:16;7.30;;;1.55;;
39020;SDS011;25188;51.958;5.842;2023-05-31T12:09:42;5.78;;;1.63;;
39020;SDS011;25188;51.958;5.842;2023-05-31T12:12:08;5.22;;;1.15;;
39020;SDS011;25188;51.958;5.842;2023-05-31T12:14:36;4.20;;;1.27;;
39020;SDS011;25188;51.958;5.842;2023-05-31T12:17:02;4.50;;;1.35;;
39020;SDS011;25188;51.958;5.842;2023-05-31T12:19:29;6.25;;;1.38;;
39020;SDS011;25188;51.958;5.842;2023-05-31T12:21:56;4.28;;;1.30;;
39020;SDS011;25188;51.958;5.842;2023-05-31T12:24:21;4.32;;;1.40;;
39020;SDS011;25188;51.958;5.842;2023-05-31T12:26:47;5.28;;;1.35;;
39020;SDS011;25188;51.958;5.842;2023-05-31T12:29:14;4.90;;;1.13;;
39020;SDS011;25188;51.958;5.842;2023-05-31T12:31:40;6.75;;;1.40;;
39020;SDS011;25188;51.958;5.842;2023-05-31T12:34:10;9.77;;;1.42;;
39020;SDS011;25188;51.958;5.842;2023-05-31T12:36:37;6.00;;;1.27;;
39020;SDS011;25188;51.958;5.842;2023-05-31T12:39:07;6.32;;;1.33;;
39020;SDS011;25188;51.958;5.842;2023-05-31T12:41:34;4.95;;;1.35;;
39020;SDS011;25188;51.958;5.842;2023-05-31T12:44:00;5.45;;;1.30;;
39020;SDS011;25188;51.958;5.842;2023-05-31T12:46:26;4.65;;;1.42;;
39020;SDS011;25188;51.958;5.842;2023-05-31T12:48:51;5.07;;;1.50;;
39020;SDS011;25188;51.958;5.842;2023-05-31T12:51:21;5.82;;;1.30;;
39020;SDS011;25188;51.958;5.842;2023-05-31T12:53:47;4.18;;;1.35;;
39020;SDS011;25188;51.958;5.842;2023-05-31T12:56:13;6.07;;;1.67;;
39020;SDS011;25188;51.958;5.842;2023-05-31T12:58:39;5.25;;;1.52;;
39020;SDS011;25188;51.958;5.842;2023-05-31T13:01:05;3.53;;;1.27;;
39020;SDS011;25188;51.958;5.842;2023-05-31T13:03:32;4.53;;;1.42;;
39020;SDS011;25188;51.958;5.842;2023-05-31T13:05:58;4.95;;;1.40;;
39020;SDS011;25188;51.958;5.842;2023-05-31T13:08:24;4.80;;;1.27;;
39020;SDS011;25188;51.958;5.842;2023-05-31T13:10:49;5.28;;;1.30;;
39020;SDS011;25188;51.958;5.842;2023-05-31T13:13:15;5.47;;;1.40;;
39020;SDS011;25188;51.958;5.842;2023-05-31T13:15:41;7.32;;;1.60;;
39020;SDS011;25188;51.958;5.842;2023-05-31T13:18:07;4.07;;;1.20;;
39020;SDS011;25188;51.958;5.842;2023-05-31T13:20:32;5.15;;;1.20;;
39020;SDS011;25188;51.958;5.842;2023-05-31T13:22:58;5.30;;;1.27;;
39020;SDS011;25188;51.958;5.842;2023-05-31T13:25:24;7.32;;;1.40;;
39020;SDS011;25188;51.958;5.842;2023-05-31T13:27:49;5.55;;;1.52;;
39020;SDS011;25188;51.958;5.842;2023-05-31T13:30:15;3.97;;;1.00;;
39020;SDS011;25188;51.958;5.842;2023-05-31T13:32:41;3.20;;;1.20;;
39020;SDS011;25188;51.958;5.842;2023-05-31T13:35:08;2.90;;;1.13;;
39020;SDS011;25188;51.958;5.842;2023-05-31T13:37:35;7.13;;;1.52;;
39020;SDS011;25188;51.958;5.842;2023-05-31T13:40:00;4.13;;;1.30;;
39020;SDS011;25188;51.958;5.842;2023-05-31T13:42:27;3.70;;;1.30;;
39020;SDS011;25188;51.958;5.842;2023-05-31T13:44:52;4.07;;;1.23;;
39020;SDS011;25188;51.958;5.842;2023-05-31T13:47:18;4.20;;;1.02;;
39020;SDS011;25188;51.958;5.842;2023-05-31T13:49:44;4.95;;;1.30;;
39020;SDS011;25188;51.958;5.842;2023-05-31T13:52:10;3.95;;;1.17;;
39020;SDS011;25188;51.958;5.842;2023-05-31T13:54:38;5.55;;;1.20;;
39020;SDS011;25188;51.958;5.842;2023-05-31T13:57:04;4.82;;;1.30;;
39020;SDS011;25188;51.958;5.842;2023-05-31T13:59:30;4.20;;;1.23;;
39020;SDS011;25188;51.958;5.842;2023-05-31T14:01:56;6.03;;;1.10;;
39020;SDS011;25188;51.958;5.842;2023-05-31T14:04:22;5.18;;;1.42;;
39020;SDS011;25188;51.958;5.842;2023-05-31T14:06:47;4.32;;;1.20;;
39020;SDS011;25188;51.958;5.842;2023-05-31T14:09:13;4.43;;;1.40;;
39020;SDS011;25188;51.958;5.842;2023-05-31T14:11:39;6.40;;;1.30;;
39020;SDS011;25188;51.958;5.842;2023-05-31T14:14:05;4.40;;;1.30;;
39020;SDS011;25188;51.958;5.842;2023-05-31T14:16:30;4.47;;;1.20;;
39020;SDS011;25188;51.958;5.842;2023-05-31T14:18:56;3.80;;;1.10;;
39020;SDS011;25188;51.958;5.842;2023-05-31T14:21:22;4.43;;;1.25;;
39020;SDS011;25188;51.958;5.842;2023-05-31T14:23:47;6.70;;;1.33;;
39020;SDS011;25188;51.958;5.842;2023-05-31T14:26:13;4.03;;;1.25;;
39020;SDS011;25188;51.958;5.842;2023-05-31T14:28:38;3.70;;;1.00;;
39020;SDS011;25188;51.958;5.842;2023-05-31T14:31:04;4.55;;;1.40;;
39020;SDS011;25188;51.958;5.842;2023-05-31T14:33:30;4.25;;;1.10;;
39020;SDS011;25188;51.958;5.842;2023-05-31T14:35:56;2.47;;;0.90;;
39020;SDS011;25188;51.958;5.842;2023-05-31T14:38:21;5.57;;;1.13;;
39020;SDS011;25188;51.958;5.842;2023-05-31T14:40:47;4.35;;;1.05;;
39020;SDS011;25188;51.958;5.842;2023-05-31T14:43:12;6.45;;;1.00;;
39020;SDS011;25188;51.958;5.842;2023-05-31T14:45:38;4.45;;;1.00;;
39020;SDS011;25188;51.958;5.842;2023-05-31T14:48:03;5.13;;;1.20;;
39020;SDS011;25188;51.958;5.842;2023-05-31T14:50:29;3.83;;;1.27;;
39020;SDS011;25188;51.958;5.842;2023-05-31T14:52:55;4.03;;;1.27;;
39020;SDS011;25188;51.958;5.842;2023-05-31T14:55:20;2.88;;;1.10;;
39020;SDS011;25188;51.958;5.842;2023-05-31T14:57:46;6.30;;;1.50;;
39020;SDS011;25188;51.958;5.842;2023-05-31T15:00:12;6.20;;;1.42;;
39020;SDS011;25188;51.958;5.842;2023-05-31T15:02:38;5.53;;;1.33;;
39020;SDS011;25188;51.958;5.842;2023-05-31T15:05:03;5.88;;;1.50;;
39020;SDS011;25188;51.958;5.842;2023-05-31T15:07:29;6.43;;;1.13;;
39020;SDS011;25188;51.958;5.842;2023-05-31T15:09:55;3.90;;;1.05;;
39020;SDS011;25188;51.958;5.842;2023-05-31T15:12:20;4.13;;;1.27;;